Time;durP1;ratioP1;P1;durP2;ratioP2;P2;SDS_P1;SDS_P2;PMS_P1;PMS_P2;Temp;Humidity;BMP_temperature;BMP_pressure;BME280_temperature;BME280_humidity;BME280_pressure;Samples;Min_cycle;Max_cycle;Signal;HPM_P1;HPM_P2
2022/07/12 00:00:00;;;;;;;1.95;1.09;;;;;;;20.37;66.84;100452.98;457545;116;922474;-75
2022/07/12 00:01:04;;;;;;;1.37;1.27;;;;;;;20.38;66.83;100457.41;457625;116;922451;-75
2022/07/12 00:02:07;;;;;;;1.87;1.21;;;;;;;20.38;66.80;100465.72;457461;114;922504;-75
2022/07/12 00:03:10;;;;;;;1.65;1.34;;;;;;;20.37;66.70;100464.05;457590;116;922505;-75
2022/07/12 00:04:13;;;;;;;1.69;1.33;;;;;;;20.36;66.71;100462.39;457562;116;922606;-75
2022/07/12 00:05:17;;;;;;;1.25;1.21;;;;;;;20.35;66.64;100465.44;457590;116;922597;-75
2022/07/12 00:06:20;;;;;;;1.80;1.39;;;;;;;20.34;66.63;100470.14;457502;116;922745;-75
2022/07/12 00:07:24;;;;;;;2.07;1.37;;;;;;;20.34;66.68;100470.14;449713;116;930389;-75
2022/07/12 00:08:27;;;;;;;2.09;1.55;;;;;;;20.35;66.64;100466.27;449796;118;922854;-75
2022/07/12 00:09:32;;;;;;;3.81;1.99;;;;;;;20.36;66.63;100473.47;449633;118;922988;-74
2022/07/12 00:10:35;;;;;;;1.49;1.39;;;;;;;20.37;66.65;100472.36;449799;118;922559;-75
2022/07/12 00:11:38;;;;;;;1.94;1.29;;;;;;;20.38;66.58;100468.48;449754;118;922579;-75
2022/07/12 00:12:42;;;;;;;1.59;1.26;;;;;;;20.40;66.58;100473.72;449742;118;922606;-75
2022/07/12 00:13:45;;;;;;;2.16;1.36;;;;;;;20.40;66.51;100474.55;449662;118;922551;-75
2022/07/12 00:14:49;;;;;;;1.73;1.32;;;;;;;20.39;66.44;100470.16;453723;116;922503;-74
2022/07/12 00:15:52;;;;;;;1.61;1.41;;;;;;;20.40;66.40;100469.02;456377;116;922500;-75
2022/07/12 00:16:56;;;;;;;2.11;1.88;;;;;;;20.40;66.36;100471.78;456307;114;922847;-75
2022/07/12 00:17:59;;;;;;;2.49;1.49;;;;;;;20.40;66.36;100471.78;456242;116;930345;-75
2022/07/12 00:19:02;;;;;;;2.64;1.28;;;;;;;20.42;66.44;100470.68;456403;116;923029;-75
2022/07/12 00:20:07;;;;;;;2.18;1.20;;;;;;;20.42;66.44;100471.51;456268;116;922502;-74
2022/07/12 00:21:10;;;;;;;1.99;1.59;;;;;;;20.44;66.43;100474.84;456207;116;923133;-75
2022/07/12 00:22:14;;;;;;;1.43;1.31;;;;;;;20.47;66.44;100478.97;456297;114;930391;-75
2022/07/12 00:23:17;;;;;;;3.79;1.79;;;;;;;20.48;66.50;100477.86;456227;114;922558;-75
2022/07/12 00:24:21;;;;;;;1.72;1.50;;;;;;;20.49;66.37;100482.30;456285;116;922685;-75
2022/07/12 00:25:25;;;;;;;2.27;1.38;;;;;;;20.49;66.25;100485.90;456342;116;930477;-74
2022/07/12 00:26:30;;;;;;;2.15;1.61;;;;;;;20.51;66.11;100485.63;456167;116;923069;-74
2022/07/12 00:27:33;;;;;;;3.04;1.47;;;;;;;20.50;66.07;100489.50;456241;114;922627;-75
2022/07/12 00:28:37;;;;;;;1.94;1.67;;;;;;;20.50;66.10;100486.73;456204;116;923053;-75
2022/07/12 00:29:40;;;;;;;1.91;1.33;;;;;;;20.49;65.99;100496.14;456657;116;930392;-75
2022/07/12 00:30:43;;;;;;;4.72;1.62;;;;;;;20.46;65.93;100489.21;459598;113;922574;-75
2022/07/12 00:31:48;;;;;;;2.21;1.78;;;;;;;20.45;65.89;100504.20;457435;114;922465;-75
2022/07/12 00:32:51;;;;;;;1.89;1.55;;;;;;;20.42;65.93;100503.91;465431;114;923044;-75
2022/07/12 00:33:55;;;;;;;2.49;1.49;;;;;;;20.41;66.01;100503.08;464960;112;923425;-75
2022/07/12 00:34:58;;;;;;;1.92;1.32;;;;;;;20.40;66.03;100506.95;457577;116;922506;-75
2022/07/12 00:36:02;;;;;;;2.01;1.59;;;;;;;20.39;66.10;100510.86;457476;116;922903;-74
2022/07/12 00:37:05;;;;;;;3.18;1.72;;;;;;;20.40;66.04;100516.09;457452;114;922895;-75
2022/07/12 00:38:08;;;;;;;2.93;1.51;;;;;;;20.40;66.04;100518.87;457561;116;922912;-75
2022/07/12 00:39:15;;;;;;;2.79;1.42;;;;;;;20.41;66.05;100514.16;457366;116;922569;-75
2022/07/12 00:40:20;;;;;;;1.73;1.44;;;;;;;20.41;65.93;100508.62;457109;116;922952;-75
2022/07/12 00:41:23;;;;;;;2.65;1.59;;;;;;;20.42;65.94;100506.69;457533;116;922603;-75
2022/07/12 00:42:27;;;;;;;1.89;1.42;;;;;;;20.42;65.98;100510.28;457427;113;922573;-75
2022/07/12 00:43:30;;;;;;;1.54;1.36;;;;;;;20.43;65.93;100516.66;457460;116;924204;-75
2022/07/12 00:44:34;;;;;;;4.03;1.47;;;;;;;20.43;65.98;100517.48;457582;113;922596;-74
2022/07/12 00:45:37;;;;;;;1.47;1.37;;;;;;;20.43;65.86;100516.66;457577;116;922473;-75
2022/07/12 00:46:40;;;;;;;4.69;1.82;;;;;;;20.43;65.79;100513.88;457414;114;922917;-75
2022/07/12 00:47:46;;;;;;;2.76;1.61;;;;;;;20.42;65.80;100515.83;457477;116;922544;-75
2022/07/12 00:48:50;;;;;;;1.73;1.33;;;;;;;20.43;65.80;100516.66;457358;114;923100;-75
2022/07/12 00:49:54;;;;;;;1.45;1.35;;;;;;;20.42;65.79;100520.53;457379;113;922649;-75
2022/07/12 00:50:58;;;;;;;2.10;1.72;;;;;;;20.42;65.74;100515.83;457388;116;922620;-75
2022/07/12 00:52:01;;;;;;;1.80;1.46;;;;;;;20.43;65.82;100516.66;457475;114;922464;-75
2022/07/12 00:53:04;;;;;;;1.61;1.51;;;;;;;20.42;65.74;100517.77;457568;116;922544;-75
2022/07/12 00:54:08;;;;;;;2.71;1.68;;;;;;;20.42;65.73;100513.05;458587;113;922845;-75
2022/07/12 00:55:12;;;;;;;1.87;1.77;;;;;;;20.43;65.77;100520.26;463763;114;922697;-76
2022/07/12 00:56:16;;;;;;;3.19;1.89;;;;;;;20.43;65.65;100522.19;463570;114;930375;-75
2022/07/12 00:57:19;;;;;;;1.86;1.71;;;;;;;20.43;65.71;100522.19;463774;112;923157;-75
2022/07/12 00:58:28;;;;;;;2.36;1.91;;;;;;;20.42;65.65;100521.36;463806;114;923037;-75
2022/07/12 00:59:31;;;;;;;3.00;2.18;;;;;;;20.42;65.71;100521.36;463601;114;922555;-75
2022/07/12 01:00:35;;;;;;;2.23;2.02;;;;;;;20.42;65.63;100520.53;463722;114;922603;-75
2022/07/12 01:01:38;;;;;;;2.27;2.09;;;;;;;20.43;65.58;100524.96;463799;114;922829;-75
2022/07/12 01:02:43;;;;;;;3.09;1.89;;;;;;;20.40;65.52;100524.41;463793;114;922498;-76
2022/07/12 01:03:46;;;;;;;2.60;2.42;;;;;;;20.40;65.59;100523.57;463662;114;922929;-75
2022/07/12 01:04:51;;;;;;;2.65;2.26;;;;;;;20.40;65.64;100529.11;463742;114;922879;-75
2022/07/12 01:05:55;;;;;;;2.55;2.32;;;;;;;20.39;65.55;100522.77;463697;114;922596;-75
2022/07/12 01:06:59;;;;;;;2.76;2.51;;;;;;;20.41;65.62;100525.23;463695;114;922824;-75
2022/07/12 01:08:03;;;;;;;2.71;2.37;;;;;;;20.40;65.62;100531.87;463787;114;922558;-75
2022/07/12 01:09:07;;;;;;;3.19;2.55;;;;;;;20.41;65.53;100530.78;463734;114;922547;-76
2022/07/12 01:10:12;;;;;;;3.26;2.86;;;;;;;20.40;65.52;100529.11;463594;114;922642;-75
2022/07/12 01:11:16;;;;;;;3.89;2.91;;;;;;;20.41;65.45;100536.31;463725;114;923039;-75
2022/07/12 01:12:20;;;;;;;3.96;2.72;;;;;;;20.42;65.52;100534.38;463697;114;922592;-75
2022/07/12 01:13:23;;;;;;;4.50;3.24;;;;;;;20.42;65.44;100537.14;463653;114;922559;-75
2022/07/12 01:14:27;;;;;;;3.84;3.07;;;;;;;20.43;65.39;100538.81;461645;114;923141;-75
2022/07/12 01:15:31;;;;;;;3.46;3.13;;;;;;;20.43;65.33;100534.11;455254;116;922867;-75
2022/07/12 01:16:37;;;;;;;3.86;3.47;;;;;;;20.44;65.21;100538.54;455231;116;922631;-75
2022/07/12 01:17:40;;;;;;;3.62;3.07;;;;;;;20.45;65.12;100539.38;455324;116;922640;-75
2022/07/12 01:18:44;;;;;;;3.64;3.34;;;;;;;20.44;65.07;100540.48;462700;114;922754;-75
2022/07/12 01:19:49;;;;;;;3.97;3.63;;;;;;;20.43;65.02;100547.95;462204;114;927355;-75
2022/07/12 01:20:53;;;;;;;3.14;2.91;;;;;;;20.42;65.12;100551.00;455230;116;922484;-75
2022/07/12 01:21:57;;;;;;;4.08;3.63;;;;;;;20.41;65.16;100552.94;455285;116;922562;-75
2022/07/12 01:23:01;;;;;;;4.36;3.98;;;;;;;20.39;65.19;100555.17;455225;116;930949;-75
2022/07/12 01:24:06;;;;;;;4.30;3.81;;;;;;;20.37;65.10;100557.38;455305;116;922651;-75
2022/07/12 01:25:09;;;;;;;3.76;3.47;;;;;;;20.36;65.15;100555.72;455192;116;922575;-75
2022/07/12 01:26:14;;;;;;;3.68;3.42;;;;;;;20.34;65.11;100552.42;455354;116;923074;-75
2022/07/12 01:27:17;;;;;;;4.20;3.89;;;;;;;20.32;65.19;100552.69;455350;116;922715;-75
2022/07/12 01:28:20;;;;;;;4.53;3.93;;;;;;;20.33;65.16;100559.06;458190;114;922488;-75
2022/07/12 01:29:24;;;;;;;4.61;4.21;;;;;;;20.32;65.15;100557.39;463687;114;922704;-75
2022/07/12 01:30:27;;;;;;;4.95;3.81;;;;;;;20.30;65.06;100552.09;464511;112;922520;-75
2022/07/12 01:31:31;;;;;;;5.13;4.28;;;;;;;20.28;65.05;100557.10;463757;114;930501;-75
2022/07/12 01:32:34;;;;;;;4.24;3.96;;;;;;;20.28;65.04;100554.33;463701;112;922632;-75
2022/07/12 01:33:38;;;;;;;4.52;4.21;;;;;;;20.27;65.03;100562.91;464333;112;922530;-75
2022/07/12 01:34:42;;;;;;;4.48;4.15;;;;;;;20.25;64.95;100563.18;472123;112;923009;-75
2022/07/12 01:35:47;;;;;;;4.91;4.51;;;;;;;20.23;64.93;100565.39;480557;110;922507;-75
2022/07/12 01:36:50;;;;;;;6.63;4.94;;;;;;;20.21;65.09;100562.09;480097;110;922952;-75
2022/07/12 01:37:53;;;;;;;5.16;4.72;;;;;;;20.21;65.04;100564.86;472229;112;923012;-75
2022/07/12 01:38:56;;;;;;;4.37;4.07;;;;;;;20.20;65.11;100573.43;472220;112;922486;-75
2022/07/12 01:40:00;;;;;;;4.49;4.06;;;;;;;20.18;65.00;100568.16;472200;112;922504;-75
2022/07/12 01:41:04;;;;;;;4.47;4.17;;;;;;;20.17;64.97;100557.39;472100;112;922873;-75
2022/07/12 01:42:08;;;;;;;4.68;4.27;;;;;;;20.16;64.97;100567.63;471937;112;922597;-75
2022/07/12 01:43:11;;;;;;;4.42;4.12;;;;;;;20.15;64.98;100568.73;472052;112;922463;-75
2022/07/12 01:44:15;;;;;;;4.50;3.89;;;;;;;20.15;65.00;100570.67;472060;112;922510;-75
2022/07/12 01:45:18;;;;;;;4.78;4.37;;;;;;;20.15;64.95;100573.44;472173;112;922693;-74
2022/07/12 01:46:22;;;;;;;4.64;4.18;;;;;;;20.14;64.92;100571.77;472066;112;922439;-75
2022/07/12 01:47:28;;;;;;;4.61;4.20;;;;;;;20.13;64.96;100568.17;472010;112;930611;-75
2022/07/12 01:48:33;;;;;;;4.07;3.77;;;;;;;20.14;64.89;100569.84;471957;112;922687;-75
2022/07/12 01:49:36;;;;;;;4.86;3.83;;;;;;;20.13;64.82;100568.17;472059;112;922669;-75
2022/07/12 01:50:39;;;;;;;4.14;3.83;;;;;;;20.12;64.74;100566.53;472238;112;923033;-75
2022/07/12 01:51:42;;;;;;;4.39;3.93;;;;;;;20.11;64.78;100567.64;472193;112;923295;-75
2022/07/12 01:52:46;;;;;;;4.40;4.01;;;;;;;20.10;64.75;100568.74;472165;112;922789;-75
2022/07/12 01:53:49;;;;;;;4.73;4.34;;;;;;;20.08;64.73;100562.64;472096;112;922628;-75
2022/07/12 01:54:54;;;;;;;4.35;3.99;;;;;;;20.07;64.70;100563.75;472507;111;922654;-75
2022/07/12 01:55:57;;;;;;;4.48;4.15;;;;;;;20.06;64.73;100564.88;472736;112;922444;-75
2022/07/12 01:57:01;;;;;;;4.17;3.94;;;;;;;20.04;64.73;100561.55;472881;112;923008;-75
2022/07/12 01:58:06;;;;;;;4.23;3.92;;;;;;;20.04;64.64;100569.85;472785;111;930493;-75
2022/07/12 01:59:10;;;;;;;4.64;4.34;;;;;;;20.03;64.69;100568.19;472652;112;923017;-75
2022/07/12 02:00:14;;;;;;;4.46;4.08;;;;;;;20.02;64.70;100569.28;472881;112;922848;-75
2022/07/12 02:01:18;;;;;;;4.96;4.55;;;;;;;19.99;64.74;100567.92;472849;112;930473;-75
2022/07/12 02:02:22;;;;;;;5.38;4.44;;;;;;;19.97;64.79;100574.83;472741;112;922599;-76
2022/07/12 02:03:25;;;;;;;4.78;4.21;;;;;;;19.97;64.96;100563.75;472657;112;930505;-76
2022/07/12 02:04:29;;;;;;;5.01;4.64;;;;;;;19.96;64.99;100570.39;472777;112;922564;-76
2022/07/12 02:05:32;;;;;;;4.67;4.33;;;;;;;19.96;65.06;100575.92;472756;112;922490;-76
2022/07/12 02:06:36;;;;;;;4.96;4.31;;;;;;;19.96;65.18;100573.99;471326;112;922526;-76
2022/07/12 02:07:41;;;;;;;4.71;4.30;;;;;;;19.96;65.22;100581.46;465415;112;922904;-73
2022/07/12 02:08:44;;;;;;;4.23;4.00;;;;;;;19.95;65.07;100575.13;465196;114;930541;-76
2022/07/12 02:09:47;;;;;;;4.35;4.09;;;;;;;19.95;65.09;100590.90;465350;114;930496;-76
2022/07/12 02:10:51;;;;;;;3.84;3.62;;;;;;;19.93;65.12;100585.63;465349;114;922574;-74
2022/07/12 02:11:54;;;;;;;4.72;4.42;;;;;;;19.92;65.17;100586.73;465389;112;930519;-76
2022/07/12 02:12:59;;;;;;;4.24;4.01;;;;;;;19.92;65.17;100595.03;465457;114;922808;-74
2022/07/12 02:14:02;;;;;;;4.90;4.50;;;;;;;19.92;65.18;100594.20;465290;114;923883;-75
2022/07/12 02:15:07;;;;;;;3.85;3.55;;;;;;;19.91;65.21;100589.77;463796;114;931012;-75
2022/07/12 02:16:10;;;;;;;4.68;4.26;;;;;;;19.91;65.28;100603.60;463582;114;922570;-75
2022/07/12 02:17:14;;;;;;;4.70;4.34;;;;;;;19.91;65.34;100600.84;463666;112;922994;-75
2022/07/12 02:18:18;;;;;;;4.50;4.17;;;;;;;19.92;65.32;100605.27;463786;114;922980;-75
2022/07/12 02:19:21;;;;;;;4.74;4.29;;;;;;;19.91;65.40;100598.91;463712;114;922547;-75
2022/07/12 02:20:24;;;;;;;5.57;5.01;;;;;;;19.93;65.50;100599.47;463778;114;923389;-75
2022/07/12 02:21:28;;;;;;;5.02;4.71;;;;;;;19.94;65.53;100606.67;463670;114;922456;-75
2022/07/12 02:22:31;;;;;;;4.83;4.34;;;;;;;19.96;65.51;100611.91;463610;112;922968;-75
2022/07/12 02:23:34;;;;;;;5.45;5.05;;;;;;;19.95;65.46;100611.11;463727;114;922432;-75
2022/07/12 02:24:38;;;;;;;4.89;4.49;;;;;;;19.98;65.48;100615.23;464407;114;922526;-75
2022/07/12 02:25:41;;;;;;;5.02;4.63;;;;;;;19.98;65.51;100621.61;465460;114;923179;-75
2022/07/12 02:26:44;;;;;;;5.29;4.38;;;;;;;19.98;65.52;100618.84;465430;112;922408;-75
2022/07/12 02:27:49;;;;;;;5.06;4.59;;;;;;;20.01;65.57;100619.41;465496;114;922545;-75
2022/07/12 02:28:52;;;;;;;5.36;4.79;;;;;;;20.01;65.67;100628.55;465338;114;922488;-75
2022/07/12 02:29:55;;;;;;;4.78;4.43;;;;;;;20.04;65.72;100627.14;466092;112;922688;-75
2022/07/12 02:30:59;;;;;;;5.49;5.09;;;;;;;20.05;65.73;100632.41;465453;114;922522;-75
2022/07/12 02:32:03;;;;;;;4.62;4.29;;;;;;;20.08;65.72;100631.84;465302;112;922610;-75
2022/07/12 02:33:06;;;;;;;4.81;4.51;;;;;;;20.11;65.76;100636.84;465265;114;930553;-75
2022/07/12 02:34:09;;;;;;;5.19;4.79;;;;;;;20.13;65.72;100636.55;469835;112;922607;-75
2022/07/12 02:35:12;;;;;;;5.05;4.61;;;;;;;20.15;65.67;100632.41;472955;112;923322;-75
2022/07/12 02:36:16;;;;;;;4.66;4.22;;;;;;;20.17;65.66;100629.38;472839;112;922451;-74
2022/07/12 02:37:19;;;;;;;4.67;4.27;;;;;;;20.18;65.53;100631.04;472858;112;930566;-75
2022/07/12 02:38:23;;;;;;;4.92;4.56;;;;;;;20.19;65.46;100636.28;472901;112;922465;-75
2022/07/12 02:39:26;;;;;;;5.06;4.62;;;;;;;20.20;65.50;100635.17;472928;112;922597;-75
2022/07/12 02:41:51;;;;;;;4.63;4.28;;;;;;;20.23;65.42;100634.61;472717;112;922545;-75
2022/07/12 02:42:54;;;;;;;4.62;4.31;;;;;;;20.25;65.56;100632.41;472915;112;923096;-75
2022/07/12 02:43:58;;;;;;;4.82;4.52;;;;;;;20.25;65.55;100635.17;472845;112;922560;-75
2022/07/12 02:45:01;;;;;;;4.69;4.29;;;;;;;20.27;65.48;100630.20;472895;112;922612;-75
2022/07/12 02:46:08;;;;;;;4.74;3.91;;;;;;;20.27;65.27;100630.20;472993;112;922559;-75
2022/07/12 02:47:11;;;;;;;4.47;4.06;;;;;;;20.27;65.27;100630.20;472760;112;922558;-75
2022/07/12 02:48:14;;;;;;;3.86;3.56;;;;;;;20.26;65.20;100642.38;472961;112;922480;-75
2022/07/12 02:49:18;;;;;;;4.46;4.06;;;;;;;20.26;65.22;100633.23;473013;112;922544;-76
2022/07/12 02:50:23;;;;;;;4.98;4.57;;;;;;;20.26;65.18;100642.38;472578;112;922901;-75
2022/07/12 02:51:26;;;;;;;3.87;3.64;;;;;;;20.27;65.23;100641.27;472909;112;922609;-76
2022/07/12 02:52:29;;;;;;;4.21;3.91;;;;;;;20.29;65.24;100647.34;472946;112;923003;-75
2022/07/12 02:53:34;;;;;;;4.34;3.94;;;;;;;20.29;65.29;100644.58;472930;112;922832;-75
2022/07/12 02:54:39;;;;;;;6.03;4.03;;;;;;;20.29;65.20;100647.34;473383;110;922526;-76
2022/07/12 02:55:42;;;;;;;3.97;3.58;;;;;;;20.32;65.18;100646.84;472950;112;922518;-76
2022/07/12 02:56:45;;;;;;;3.72;3.41;;;;;;;20.32;65.12;100643.23;472964;112;922557;-73
2022/07/12 02:57:49;;;;;;;4.09;3.72;;;;;;;20.33;65.13;100647.67;472980;112;922577;-74
2022/07/12 02:58:52;;;;;;;4.01;3.68;;;;;;;20.34;65.14;100650.14;473005;112;922521;-74
2022/07/12 02:59:55;;;;;;;3.86;3.56;;;;;;;20.34;65.15;100643.80;472839;112;922515;-74
2022/07/12 03:00:58;;;;;;;3.48;3.18;;;;;;;20.33;65.08;100645.73;482406;110;923006;-74
2022/07/12 03:02:02;;;;;;;4.24;3.86;;;;;;;20.32;64.96;100646.00;481836;110;923068;-74
2022/07/12 03:03:08;;;;;;;3.51;3.21;;;;;;;20.30;64.96;100646.24;472760;112;922461;-74
2022/07/12 03:04:11;;;;;;;3.44;3.17;;;;;;;20.29;64.92;100647.34;472824;112;922514;-74
2022/07/12 03:05:15;;;;;;;3.03;2.81;;;;;;;20.28;64.96;100645.71;472987;112;922885;-75
2022/07/12 03:06:18;;;;;;;3.49;3.24;;;;;;;20.27;64.96;100646.81;472900;112;923025;-75
2022/07/12 03:07:22;;;;;;;3.44;3.15;;;;;;;20.26;64.99;100647.91;465561;112;922494;-74
2022/07/12 03:08:25;;;;;;;3.61;3.31;;;;;;;20.26;64.93;100647.08;465521;114;922890;-74
2022/07/12 03:09:28;;;;;;;3.24;3.02;;;;;;;20.25;64.87;100651.78;465516;112;922567;-75
2022/07/12 03:10:32;;;;;;;3.20;2.96;;;;;;;20.24;64.92;100652.89;465354;114;922532;-74
2022/07/12 03:11:35;;;;;;;2.98;2.78;;;;;;;20.24;64.98;100652.89;465522;114;922862;-75
2022/07/12 03:12:38;;;;;;;2.85;2.63;;;;;;;20.25;64.97;100653.72;465456;112;923140;-75
2022/07/12 03:13:41;;;;;;;4.46;2.98;;;;;;;20.28;65.02;100664.27;465415;114;923091;-75
2022/07/12 03:14:44;;;;;;;3.64;3.41;;;;;;;20.28;65.02;100664.27;464557;114;923006;-75
2022/07/12 03:15:49;;;;;;;3.54;2.92;;;;;;;20.29;64.94;100658.42;463800;113;922499;-76
2022/07/12 03:16:53;;;;;;;3.31;2.93;;;;;;;20.33;64.88;100665.13;463570;112;922499;-75
2022/07/12 03:17:58;;;;;;;3.11;2.90;;;;;;;20.34;64.95;100663.98;463767;114;922425;-75
2022/07/12 03:19:01;;;;;;;3.12;2.91;;;;;;;20.35;64.87;100676.73;463600;114;922902;-75
2022/07/12 03:20:07;;;;;;;3.22;2.99;;;;;;;20.38;64.89;100673.43;463680;114;922578;-75
2022/07/12 03:21:11;;;;;;;3.24;3.04;;;;;;;20.39;64.92;100672.33;464806;114;922593;-75
2022/07/12 03:22:14;;;;;;;3.30;3.02;;;;;;;20.42;64.87;100673.69;465410;112;922636;-75
2022/07/12 03:23:17;;;;;;;3.27;3.01;;;;;;;20.43;64.78;100678.13;465506;114;922996;-75
2022/07/12 03:24:21;;;;;;;3.24;3.00;;;;;;;20.45;64.79;100675.09;465498;114;922832;-75
2022/07/12 03:25:24;;;;;;;3.27;2.89;;;;;;;20.48;64.77;100680.06;465474;114;923179;-75
2022/07/12 03:26:29;;;;;;;4.79;2.80;;;;;;;20.51;64.71;100679.52;465231;114;923512;-76
2022/07/12 03:27:32;;;;;;;3.88;2.92;;;;;;;20.53;64.67;100685.59;465461;112;922520;-75
2022/07/12 03:28:37;;;;;;;6.12;3.22;;;;;;;20.54;64.45;100681.72;465272;114;923414;-75
2022/07/12 03:29:40;;;;;;;3.52;3.13;;;;;;;20.55;64.36;100680.62;465144;114;922518;-75
2022/07/12 03:30:44;;;;;;;3.28;3.05;;;;;;;20.55;64.30;100684.22;467004;112;922909;-75
2022/07/12 03:31:47;;;;;;;3.82;3.29;;;;;;;20.56;64.22;100683.12;465457;112;923079;-75
2022/07/12 03:32:50;;;;;;;2.89;2.69;;;;;;;20.58;64.14;100688.36;465414;114;922512;-75
2022/07/12 03:33:54;;;;;;;3.40;3.17;;;;;;;20.59;64.10;100684.48;462615;112;922905;-75
2022/07/12 03:34:58;;;;;;;4.01;3.68;;;;;;;20.60;64.02;100686.98;459841;115;930481;-76
2022/07/12 03:36:01;;;;;;;3.27;3.07;;;;;;;20.61;63.92;100685.05;460041;113;922835;-75
2022/07/12 03:37:04;;;;;;;3.92;3.62;;;;;;;20.62;63.88;100686.72;451604;115;922636;-75
2022/07/12 03:38:08;;;;;;;4.33;4.02;;;;;;;20.64;63.75;100695.56;451735;117;922590;-75
2022/07/12 03:39:11;;;;;;;3.98;3.68;;;;;;;20.64;63.65;100698.33;452142;117;922990;-75
2022/07/12 03:40:16;;;;;;;4.92;4.47;;;;;;;20.65;63.53;100697.23;459892;115;922551;-75
2022/07/12 03:41:19;;;;;;;4.24;3.94;;;;;;;20.65;63.50;100695.29;459871;115;922522;-75
2022/07/12 03:42:23;;;;;;;4.29;3.99;;;;;;;20.65;63.46;100697.23;451506;115;930504;-75
2022/07/12 03:43:26;;;;;;;4.52;3.96;;;;;;;20.66;63.39;100693.35;451647;117;930609;-75
2022/07/12 03:44:30;;;;;;;4.07;3.87;;;;;;;20.67;63.24;100697.79;452090;117;922945;-75
2022/07/12 03:45:34;;;;;;;4.45;3.74;;;;;;;20.67;63.20;100697.79;459871;115;922637;-75
2022/07/12 03:46:37;;;;;;;4.69;3.37;;;;;;;20.68;63.08;100703.03;459900;115;928061;-75
2022/07/12 03:47:41;;;;;;;3.84;3.64;;;;;;;20.69;62.88;100703.86;451739;117;923221;-75
2022/07/12 03:48:44;;;;;;;3.86;3.59;;;;;;;20.70;62.81;100694.45;459331;115;922698;-75
2022/07/12 03:49:48;;;;;;;3.61;3.25;;;;;;;20.69;62.72;100704.70;459490;115;922976;-75
2022/07/12 03:50:51;;;;;;;3.82;3.51;;;;;;;20.70;62.67;100705.53;451617;117;922686;-75
2022/07/12 03:51:55;;;;;;;3.79;3.51;;;;;;;20.70;62.57;100702.76;451628;115;930935;-75
2022/07/12 03:52:58;;;;;;;3.44;3.14;;;;;;;20.71;62.66;100704.42;452131;117;922503;-75
2022/07/12 03:54:02;;;;;;;3.59;3.38;;;;;;;20.71;62.62;100704.42;459986;115;923044;-75
2022/07/12 03:55:06;;;;;;;3.99;3.71;;;;;;;20.72;62.56;100704.16;459896;114;922646;-75
2022/07/12 03:57:13;;;;;;;3.61;3.31;;;;;;;20.74;62.62;100706.62;449837;117;923000;-75
2022/07/12 03:57:16;;;;;;;3.94;3.63;;;;;;;20.74;62.42;100703.86;446854;116;922607;-75
2022/07/12 03:58:19;;;;;;;3.54;3.25;;;;;;;20.76;62.45;100707.19;449606;118;922525;-75
2022/07/12 03:59:22;;;;;;;3.34;3.14;;;;;;;20.76;62.38;100705.25;447095;118;923684;-75
2022/07/12 04:00:25;;;;;;;4.29;3.24;;;;;;;20.76;62.37;100713.56;456379;116;922552;-75
2022/07/12 04:01:29;;;;;;;3.02;2.78;;;;;;;20.78;62.31;100708.55;466863;113;923070;-75
2022/07/12 04:02:33;;;;;;;3.01;2.80;;;;;;;20.80;62.32;100711.05;466723;111;922543;-75
2022/07/12 04:03:36;;;;;;;3.47;3.12;;;;;;;20.81;62.30;100716.33;466822;113;922624;-75
2022/07/12 04:04:41;;;;;;;3.78;2.78;;;;;;;20.83;62.42;100715.22;466785;113;922808;-75
2022/07/12 04:05:44;;;;;;;3.27;2.97;;;;;;;20.85;62.31;100721.30;466678;113;922540;-75
2022/07/12 04:06:47;;;;;;;3.71;2.69;;;;;;;20.88;62.29;100720.76;466861;111;922443;-75
2022/07/12 04:07:50;;;;;;;3.16;2.96;;;;;;;20.89;62.18;100717.72;466943;113;922546;-75
2022/07/12 04:08:53;;;;;;;3.79;2.86;;;;;;;20.91;62.03;100721.02;466939;113;922951;-75
2022/07/12 04:09:57;;;;;;;3.48;3.18;;;;;;;20.93;61.89;100721.58;466924;113;922904;-75
2022/07/12 04:11:00;;;;;;;3.17;2.92;;;;;;;20.94;61.81;100728.79;466950;113;923071;-75
2022/07/12 04:12:04;;;;;;;3.29;3.08;;;;;;;20.94;61.75;100725.19;466880;113;922531;-76
2022/07/12 04:13:07;;;;;;;3.55;3.21;;;;;;;20.95;61.58;100726.85;466804;113;930565;-74
2022/07/12 04:14:10;;;;;;;3.47;3.08;;;;;;;20.97;61.46;100727.38;457179;116;922615;-75
2022/07/12 04:15:13;;;;;;;5.03;3.24;;;;;;;20.97;61.39;100728.22;458320;113;923110;-74
2022/07/12 04:16:17;;;;;;;3.39;3.05;;;;;;;20.97;61.39;100725.44;467607;113;922822;-74
2022/07/12 04:17:20;;;;;;;3.74;3.26;;;;;;;20.98;61.36;100729.88;473205;111;923091;-75
2022/07/12 04:18:24;;;;;;;3.74;3.24;;;;;;;20.98;61.27;100729.88;477064;111;923184;-75
2022/07/12 04:19:31;;;;;;;3.68;3.41;;;;;;;20.98;61.19;100726.28;476883;111;922513;-75
2022/07/12 04:20:33;;;;;;;3.68;3.38;;;;;;;;;;476857;111;923007;-75
2022/07/12 04:21:38;;;;;;;3.05;2.85;;;;;;;20.92;60.98;100725.45;476960;111;922626;-75
2022/07/12 04:22:41;;;;;;;3.23;2.85;;;;;;;20.90;60.81;100732.37;476924;111;922445;-75
2022/07/12 04:23:44;;;;;;;3.72;2.96;;;;;;;20.84;60.90;100734.32;477063;111;922548;-74
2022/07/12 04:24:47;;;;;;;3.55;3.31;;;;;;;20.81;60.91;100734.89;477046;111;922965;-74
2022/07/12 04:25:51;;;;;;;3.49;3.19;;;;;;;20.78;60.79;100741.01;476952;111;922606;-75
2022/07/12 04:26:55;;;;;;;3.74;3.44;;;;;;;20.72;60.85;100736.58;476869;109;923292;-74
2022/07/12 04:27:58;;;;;;;3.42;3.06;;;;;;;20.68;60.96;100736.28;477051;111;923541;-74
2022/07/12 04:29:01;;;;;;;3.58;3.34;;;;;;;20.65;60.97;100736.02;476947;111;922527;-74
2022/07/12 04:30:06;;;;;;;3.22;2.96;;;;;;;20.61;61.06;100735.75;474265;111;922634;-74
2022/07/12 04:31:09;;;;;;;3.29;3.07;;;;;;;20.59;61.13;100734.35;476817;111;922968;-75
2022/07/12 04:32:13;;;;;;;3.50;3.26;;;;;;;20.56;61.08;100741.30;476874;109;922595;-75
2022/07/12 04:33:16;;;;;;;3.62;3.33;;;;;;;20.53;61.13;100744.60;477035;111;922515;-75
2022/07/12 04:34:19;;;;;;;4.24;3.56;;;;;;;20.51;61.20;100741.27;483658;109;922828;-75
2022/07/12 04:35:22;;;;;;;3.39;3.04;;;;;;;20.50;61.37;100739.63;486358;109;922507;-74
2022/07/12 04:36:26;;;;;;;4.64;3.67;;;;;;;20.51;61.50;100740.46;486297;109;922474;-74
2022/07/12 04:37:29;;;;;;;3.47;3.16;;;;;;;20.53;61.65;100738.23;486383;109;930505;-75
2022/07/12 04:38:33;;;;;;;3.14;2.87;;;;;;;20.54;61.90;100743.50;486420;109;922935;-75
2022/07/12 04:39:36;;;;;;;3.66;3.36;;;;;;;20.55;61.88;100747.11;486350;109;922552;-76
2022/07/12 04:40:40;;;;;;;3.49;3.29;;;;;;;20.55;61.77;100742.39;486365;109;922867;-75
2022/07/12 04:41:43;;;;;;;3.42;3.21;;;;;;;20.55;61.60;100744.34;486404;109;922489;-75
2022/07/12 04:42:47;;;;;;;4.32;3.31;;;;;;;20.54;61.58;100748.20;486315;109;922585;-75
2022/07/12 04:43:50;;;;;;;3.70;3.40;;;;;;;20.52;61.56;100744.87;486366;106;922836;-75
2022/07/12 04:44:54;;;;;;;4.71;4.17;;;;;;;20.53;61.66;100746.53;486297;109;923235;-75
2022/07/12 04:46:07;;;;;;;4.49;4.11;;;;;;;20.53;61.62;100752.91;486206;109;930519;-76
2022/07/12 04:47:17;;;;;;;4.56;4.17;;;;;;;20.65;61.51;100755.41;472121;110;946741;-76
2022/07/12 04:48:21;;;;;;;4.41;4.00;;;;;;;20.55;61.66;100756.25;457411;116;922799;-76
2022/07/12 04:49:24;;;;;;;4.09;3.74;;;;;;;20.56;61.62;100754.31;457441;116;922637;-75
2022/07/12 04:50:28;;;;;;;3.94;3.68;;;;;;;20.58;61.71;100761.22;450397;117;923328;-76
2022/07/12 04:51:32;;;;;;;4.22;3.88;;;;;;;20.61;61.75;100762.63;450827;116;922658;-75
2022/07/12 04:52:36;;;;;;;5.90;4.21;;;;;;;20.62;61.81;100767.86;457402;114;922586;-75
2022/07/12 04:53:39;;;;;;;4.92;4.47;;;;;;;20.67;61.65;100762.35;457474;115;923090;-75